sensor_id;sensor_type;location;lat;lon;timestamp;P1;durP1;ratioP1;P2;durP2;ratioP2
20122;SDS011;10222;50.848;4.336;2022-09-03T00:01:33;6.35;;;3.72;;
20122;SDS011;10222;50.848;4.336;2022-09-03T00:04:02;7.07;;;3.83;;
20122;SDS011;10222;50.848;4.336;2022-09-03T00:06:35;5.57;;;3.80;;
20122;SDS011;10222;50.848;4.336;2022-09-03T00:11:32;6.65;;;3.78;;
20122;SDS011;10222;50.848;4.336;2022-09-03T00:17:07;5.37;;;3.37;;
20122;SDS011;10222;50.848;4.336;2022-09-03T00:19:25;7.28;;;3.85;;
20122;SDS011;10222;50.848;4.336;2022-09-03T00:21:57;5.38;;;3.85;;
20122;SDS011;10222;50.848;4.336;2022-09-03T00:24:32;5.35;;;3.55;;
20122;SDS011;10222;50.848;4.336;2022-09-03T00:27:00;4.97;;;3.70;;
20122;SDS011;10222;50.848;4.336;2022-09-03T00:29:30;7.50;;;3.85;;
20122;SDS011;10222;50.848;4.336;2022-09-03T00:31:59;6.18;;;3.75;;
20122;SDS011;10222;50.848;4.336;2022-09-03T00:36:56;8.52;;;3.60;;
20122;SDS011;10222;50.848;4.336;2022-09-03T00:39:24;5.33;;;3.57;;
20122;SDS011;10222;50.848;4.336;2022-09-03T00:42:12;4.97;;;2.67;;
20122;SDS011;10222;50.848;4.336;2022-09-03T00:50:06;3.37;;;2.33;;
20122;SDS011;10222;50.848;4.336;2022-09-03T00:52:40;2.50;;;2.20;;
20122;SDS011;10222;50.848;4.336;2022-09-03T00:57:43;4.70;;;2.40;;
20122;SDS011;10222;50.848;4.336;2022-09-03T01:00:15;4.67;;;2.00;;
20122;SDS011;10222;50.848;4.336;2022-09-03T01:02:50;2.17;;;1.95;;
20122;SDS011;10222;50.848;4.336;2022-09-03T01:13:27;3.10;;;2.42;;
20122;SDS011;10222;50.848;4.336;2022-09-03T01:16:01;3.20;;;2.50;;
20122;SDS011;10222;50.848;4.336;2022-09-03T01:31:33;4.82;;;2.83;;
20122;SDS011;10222;50.848;4.336;2022-09-03T01:34:09;4.65;;;3.03;;
20122;SDS011;10222;50.848;4.336;2022-09-03T01:39:57;4.90;;;3.27;;
20122;SDS011;10222;50.848;4.336;2022-09-03T01:47:35;5.03;;;3.43;;
20122;SDS011;10222;50.848;4.336;2022-09-03T01:57:55;5.88;;;3.30;;
20122;SDS011;10222;50.848;4.336;2022-09-03T02:00:23;4.37;;;3.10;;
20122;SDS011;10222;50.848;4.336;2022-09-03T02:02:51;5.93;;;3.10;;
20122;SDS011;10222;50.848;4.336;2022-09-03T02:05:27;5.25;;;3.38;;
20122;SDS011;10222;50.848;4.336;2022-09-03T02:08:01;6.15;;;3.75;;
20122;SDS011;10222;50.848;4.336;2022-09-03T02:10:29;4.60;;;3.78;;
20122;SDS011;10222;50.848;4.336;2022-09-03T02:13:01;5.97;;;3.40;;
20122;SDS011;10222;50.848;4.336;2022-09-03T02:15:29;7.22;;;3.90;;
20122;SDS011;10222;50.848;4.336;2022-09-03T02:17:57;8.90;;;4.43;;
20122;SDS011;10222;50.848;4.336;2022-09-03T02:20:25;7.03;;;3.78;;
20122;SDS011;10222;50.848;4.336;2022-09-03T02:22:53;4.65;;;3.75;;
20122;SDS011;10222;50.848;4.336;2022-09-03T02:25:19;6.10;;;3.80;;
20122;SDS011;10222;50.848;4.336;2022-09-03T02:27:47;4.10;;;3.67;;
20122;SDS011;10222;50.848;4.336;2022-09-03T02:30:15;6.43;;;4.40;;
20122;SDS011;10222;50.848;4.336;2022-09-03T02:32:42;6.55;;;4.00;;
20122;SDS011;10222;50.848;4.336;2022-09-03T02:35:08;4.65;;;3.70;;
20122;SDS011;10222;50.848;4.336;2022-09-03T02:37:35;5.18;;;3.80;;
20122;SDS011;10222;50.848;4.336;2022-09-03T02:40:02;3.80;;;3.42;;
20122;SDS011;10222;50.848;4.336;2022-09-03T02:42:32;4.25;;;3.33;;
20122;SDS011;10222;50.848;4.336;2022-09-03T02:45:11;11.67;;;3.80;;
20122;SDS011;10222;50.848;4.336;2022-09-03T02:47:39;5.23;;;3.60;;
20122;SDS011;10222;50.848;4.336;2022-09-03T02:50:06;4.90;;;3.40;;
20122;SDS011;10222;50.848;4.336;2022-09-03T02:52:32;5.72;;;3.78;;
20122;SDS011;10222;50.848;4.336;2022-09-03T02:54:58;6.35;;;4.20;;
20122;SDS011;10222;50.848;4.336;2022-09-03T02:57:24;7.17;;;4.37;;
20122;SDS011;10222;50.848;4.336;2022-09-03T02:59:51;5.03;;;4.00;;
20122;SDS011;10222;50.848;4.336;2022-09-03T03:02:17;7.27;;;4.87;;
20122;SDS011;10222;50.848;4.336;2022-09-03T03:04:43;10.10;;;5.93;;
20122;SDS011;10222;50.848;4.336;2022-09-03T03:07:09;9.27;;;5.87;;
20122;SDS011;10222;50.848;4.336;2022-09-03T03:09:35;7.80;;;6.10;;
20122;SDS011;10222;50.848;4.336;2022-09-03T03:12:01;7.50;;;5.90;;
20122;SDS011;10222;50.848;4.336;2022-09-03T03:14:27;8.20;;;6.32;;
20122;SDS011;10222;50.848;4.336;2022-09-03T03:16:53;8.32;;;6.50;;
20122;SDS011;10222;50.848;4.336;2022-09-03T03:19:19;8.82;;;6.68;;
20122;SDS011;10222;50.848;4.336;2022-09-03T03:21:45;8.30;;;6.88;;
20122;SDS011;10222;50.848;4.336;2022-09-03T03:24:11;7.70;;;6.43;;
20122;SDS011;10222;50.848;4.336;2022-09-03T03:26:37;10.20;;;6.78;;
20122;SDS011;10222;50.848;4.336;2022-09-03T03:29:03;9.43;;;6.45;;
20122;SDS011;10222;50.848;4.336;2022-09-03T03:31:29;7.72;;;6.32;;
20122;SDS011;10222;50.848;4.336;2022-09-03T03:33:56;7.65;;;5.63;;
20122;SDS011;10222;50.848;4.336;2022-09-03T03:36:24;6.93;;;5.27;;
20122;SDS011;10222;50.848;4.336;2022-09-03T03:38:52;7.75;;;5.97;;
20122;SDS011;10222;50.848;4.336;2022-09-03T03:41:19;9.65;;;5.65;;
20122;SDS011;10222;50.848;4.336;2022-09-03T03:43:46;7.55;;;5.85;;
20122;SDS011;10222;50.848;4.336;2022-09-03T03:46:13;7.70;;;5.45;;
20122;SDS011;10222;50.848;4.336;2022-09-03T03:48:39;8.45;;;5.85;;
20122;SDS011;10222;50.848;4.336;2022-09-03T03:51:06;7.75;;;5.72;;
20122;SDS011;10222;50.848;4.336;2022-09-03T03:53:33;7.50;;;5.47;;
20122;SDS011;10222;50.848;4.336;2022-09-03T03:56:00;7.13;;;5.40;;
20122;SDS011;10222;50.848;4.336;2022-09-03T03:58:27;9.10;;;5.70;;
20122;SDS011;10222;50.848;4.336;2022-09-03T04:00:53;8.55;;;5.40;;
20122;SDS011;10222;50.848;4.336;2022-09-03T04:03:19;7.90;;;5.70;;
20122;SDS011;10222;50.848;4.336;2022-09-03T04:05:57;10.27;;;6.00;;
20122;SDS011;10222;50.848;4.336;2022-09-03T04:08:24;7.32;;;5.95;;
20122;SDS011;10222;50.848;4.336;2022-09-03T04:10:50;10.48;;;5.43;;
20122;SDS011;10222;50.848;4.336;2022-09-03T04:13:16;11.30;;;6.00;;
20122;SDS011;10222;50.848;4.336;2022-09-03T04:15:43;9.02;;;6.03;;
20122;SDS011;10222;50.848;4.336;2022-09-03T04:18:09;7.33;;;4.53;;
20122;SDS011;10222;50.848;4.336;2022-09-03T04:20:35;8.48;;;4.57;;
20122;SDS011;10222;50.848;4.336;2022-09-03T04:23:01;5.93;;;3.77;;
20122;SDS011;10222;50.848;4.336;2022-09-03T04:25:28;5.97;;;3.53;;
20122;SDS011;10222;50.848;4.336;2022-09-03T04:27:53;3.85;;;3.00;;
20122;SDS011;10222;50.848;4.336;2022-09-03T04:30:20;3.97;;;2.63;;
20122;SDS011;10222;50.848;4.336;2022-09-03T04:32:48;5.17;;;3.00;;
20122;SDS011;10222;50.848;4.336;2022-09-03T04:35:26;4.30;;;2.70;;
20122;SDS011;10222;50.848;4.336;2022-09-03T04:37:56;3.87;;;2.90;;
20122;SDS011;10222;50.848;4.336;2022-09-03T04:40:22;3.80;;;2.78;;
20122;SDS011;10222;50.848;4.336;2022-09-03T04:42:49;3.25;;;2.90;;
20122;SDS011;10222;50.848;4.336;2022-09-03T04:45:16;3.25;;;2.50;;
20122;SDS011;10222;50.848;4.336;2022-09-03T04:47:44;3.47;;;2.73;;
20122;SDS011;10222;50.848;4.336;2022-09-03T04:50:11;3.20;;;2.65;;
20122;SDS011;10222;50.848;4.336;2022-09-03T04:52:37;4.77;;;3.13;;
20122;SDS011;10222;50.848;4.336;2022-09-03T04:55:03;3.90;;;2.90;;
20122;SDS011;10222;50.848;4.336;2022-09-03T04:57:33;4.60;;;3.15;;
20122;SDS011;10222;50.848;4.336;2022-09-03T05:00:02;3.95;;;3.15;;
20122;SDS011;10222;50.848;4.336;2022-09-03T05:02:28;4.03;;;3.28;;
20122;SDS011;10222;50.848;4.336;2022-09-03T05:04:54;3.05;;;2.60;;
20122;SDS011;10222;50.848;4.336;2022-09-03T05:07:20;4.60;;;2.50;;
20122;SDS011;10222;50.848;4.336;2022-09-03T05:09:46;6.60;;;3.00;;
20122;SDS011;10222;50.848;4.336;2022-09-03T05:12:12;3.83;;;2.70;;
20122;SDS011;10222;50.848;4.336;2022-09-03T05:14:38;3.40;;;2.80;;
20122;SDS011;10222;50.848;4.336;2022-09-03T05:17:04;3.97;;;2.87;;
20122;SDS011;10222;50.848;4.336;2022-09-03T05:19:30;3.20;;;2.90;;
20122;SDS011;10222;50.848;4.336;2022-09-03T05:21:58;4.40;;;2.85;;
20122;SDS011;10222;50.848;4.336;2022-09-03T05:24:24;3.27;;;2.93;;
20122;SDS011;10222;50.848;4.336;2022-09-03T05:26:50;3.00;;;2.67;;
20122;SDS011;10222;50.848;4.336;2022-09-03T05:29:16;5.85;;;3.15;;
20122;SDS011;10222;50.848;4.336;2022-09-03T05:31:43;3.65;;;2.90;;
20122;SDS011;10222;50.848;4.336;2022-09-03T05:34:09;5.20;;;3.50;;
20122;SDS011;10222;50.848;4.336;2022-09-03T05:36:36;4.60;;;3.00;;
20122;SDS011;10222;50.848;4.336;2022-09-03T05:39:03;4.72;;;3.80;;
20122;SDS011;10222;50.848;4.336;2022-09-03T05:41:29;6.50;;;3.50;;
20122;SDS011;10222;50.848;4.336;2022-09-03T05:43:57;5.18;;;3.60;;
20122;SDS011;10222;50.848;4.336;2022-09-03T05:46:24;7.13;;;3.37;;
20122;SDS011;10222;50.848;4.336;2022-09-03T05:48:56;5.15;;;3.55;;
20122;SDS011;10222;50.848;4.336;2022-09-03T05:51:23;8.35;;;3.88;;
20122;SDS011;10222;50.848;4.336;2022-09-03T05:53:49;7.67;;;3.70;;
20122;SDS011;10222;50.848;4.336;2022-09-03T05:56:18;4.90;;;3.90;;
20122;SDS011;10222;50.848;4.336;2022-09-03T05:58:45;4.53;;;3.35;;
20122;SDS011;10222;50.848;4.336;2022-09-03T06:01:16;6.23;;;4.30;;
20122;SDS011;10222;50.848;4.336;2022-09-03T06:03:43;5.57;;;4.20;;
20122;SDS011;10222;50.848;4.336;2022-09-03T06:06:10;5.57;;;3.97;;
20122;SDS011;10222;50.848;4.336;2022-09-03T06:08:38;6.10;;;4.10;;
20122;SDS011;10222;50.848;4.336;2022-09-03T06:11:04;4.10;;;3.42;;
20122;SDS011;10222;50.848;4.336;2022-09-03T06:13:31;7.78;;;4.40;;
20122;SDS011;10222;50.848;4.336;2022-09-03T06:15:57;4.30;;;3.60;;
20122;SDS011;10222;50.848;4.336;2022-09-03T06:18:24;5.00;;;4.10;;
20122;SDS011;10222;50.848;4.336;2022-09-03T06:20:58;7.63;;;4.38;;
20122;SDS011;10222;50.848;4.336;2022-09-03T06:23:24;6.95;;;4.35;;
20122;SDS011;10222;50.848;4.336;2022-09-03T06:28:33;5.70;;;4.40;;
20122;SDS011;10222;50.848;4.336;2022-09-03T06:31:00;5.68;;;4.13;;
20122;SDS011;10222;50.848;4.336;2022-09-03T06:33:27;6.05;;;4.88;;
20122;SDS011;10222;50.848;4.336;2022-09-03T06:35:56;10.13;;;5.32;;
20122;SDS011;10222;50.848;4.336;2022-09-03T06:38:23;6.55;;;5.00;;
20122;SDS011;10222;50.848;4.336;2022-09-03T06:40:57;6.65;;;4.80;;
20122;SDS011;10222;50.848;4.336;2022-09-03T06:43:26;7.63;;;3.97;;
20122;SDS011;10222;50.848;4.336;2022-09-03T06:45:56;4.80;;;3.00;;
20122;SDS011;10222;50.848;4.336;2022-09-03T06:48:22;6.35;;;2.85;;
20122;SDS011;10222;50.848;4.336;2022-09-03T06:50:52;4.82;;;2.63;;
20122;SDS011;10222;50.848;4.336;2022-09-03T06:53:18;5.30;;;2.65;;
20122;SDS011;10222;50.848;4.336;2022-09-03T06:55:51;5.32;;;2.60;;
20122;SDS011;10222;50.848;4.336;2022-09-03T06:58:17;2.88;;;2.10;;
20122;SDS011;10222;50.848;4.336;2022-09-03T07:00:43;3.20;;;2.33;;
20122;SDS011;10222;50.848;4.336;2022-09-03T07:03:09;5.95;;;2.38;;
20122;SDS011;10222;50.848;4.336;2022-09-03T07:05:35;6.25;;;2.40;;
20122;SDS011;10222;50.848;4.336;2022-09-03T07:08:02;3.50;;;2.15;;
20122;SDS011;10222;50.848;4.336;2022-09-03T07:10:29;6.25;;;2.42;;
20122;SDS011;10222;50.848;4.336;2022-09-03T07:12:54;3.40;;;1.98;;
20122;SDS011;10222;50.848;4.336;2022-09-03T07:15:21;4.35;;;2.13;;
20122;SDS011;10222;50.848;4.336;2022-09-03T07:17:47;5.28;;;2.00;;
20122;SDS011;10222;50.848;4.336;2022-09-03T07:20:14;4.72;;;2.10;;
20122;SDS011;10222;50.848;4.336;2022-09-03T07:22:40;4.00;;;2.25;;
20122;SDS011;10222;50.848;4.336;2022-09-03T07:25:06;2.95;;;2.10;;
20122;SDS011;10222;50.848;4.336;2022-09-03T07:27:34;4.35;;;2.13;;
20122;SDS011;10222;50.848;4.336;2022-09-03T07:30:00;4.82;;;2.33;;
20122;SDS011;10222;50.848;4.336;2022-09-03T07:32:27;3.85;;;2.15;;
20122;SDS011;10222;50.848;4.336;2022-09-03T07:34:53;4.63;;;2.20;;
20122;SDS011;10222;50.848;4.336;2022-09-03T07:37:22;3.78;;;2.17;;
20122;SDS011;10222;50.848;4.336;2022-09-03T07:39:48;5.10;;;2.20;;
20122;SDS011;10222;50.848;4.336;2022-09-03T07:42:14;3.75;;;2.38;;
20122;SDS011;10222;50.848;4.336;2022-09-03T07:44:40;4.35;;;2.22;;
20122;SDS011;10222;50.848;4.336;2022-09-03T07:47:07;3.97;;;2.08;;
20122;SDS011;10222;50.848;4.336;2022-09-03T07:49:33;4.85;;;2.03;;
20122;SDS011;10222;50.848;4.336;2022-09-03T07:52:00;3.20;;;2.22;;
20122;SDS011;10222;50.848;4.336;2022-09-03T07:54:27;3.42;;;2.10;;
20122;SDS011;10222;50.848;4.336;2022-09-03T07:56:53;6.90;;;2.35;;
20122;SDS011;10222;50.848;4.336;2022-09-03T07:59:19;3.65;;;1.95;;
20122;SDS011;10222;50.848;4.336;2022-09-03T08:01:46;6.80;;;1.98;;
20122;SDS011;10222;50.848;4.336;2022-09-03T08:04:13;3.40;;;2.30;;
20122;SDS011;10222;50.848;4.336;2022-09-03T08:06:39;3.17;;;2.00;;
20122;SDS011;10222;50.848;4.336;2022-09-03T08:09:07;4.05;;;2.38;;
20122;SDS011;10222;50.848;4.336;2022-09-03T08:11:38;5.55;;;2.20;;
20122;SDS011;10222;50.848;4.336;2022-09-03T08:14:05;3.88;;;2.15;;
20122;SDS011;10222;50.848;4.336;2022-09-03T08:16:33;7.28;;;2.50;;
20122;SDS011;10222;50.848;4.336;2022-09-03T08:18:59;5.45;;;2.53;;
20122;SDS011;10222;50.848;4.336;2022-09-03T08:21:26;3.40;;;2.03;;
20122;SDS011;10222;50.848;4.336;2022-09-03T08:23:53;5.80;;;2.58;;
20122;SDS011;10222;50.848;4.336;2022-09-03T08:26:21;4.38;;;2.47;;
20122;SDS011;10222;50.848;4.336;2022-09-03T08:28:47;7.47;;;2.55;;
20122;SDS011;10222;50.848;4.336;2022-09-03T08:31:16;3.63;;;2.40;;
20122;SDS011;10222;50.848;4.336;2022-09-03T08:33:44;4.65;;;2.35;;
20122;SDS011;10222;50.848;4.336;2022-09-03T08:36:14;4.55;;;2.83;;
20122;SDS011;10222;50.848;4.336;2022-09-03T08:38:42;2.90;;;2.10;;
20122;SDS011;10222;50.848;4.336;2022-09-03T08:41:14;4.55;;;2.88;;
20122;SDS011;10222;50.848;4.336;2022-09-03T08:46:19;5.68;;;3.25;;
20122;SDS011;10222;50.848;4.336;2022-09-03T08:48:46;6.70;;;2.97;;
20122;SDS011;10222;50.848;4.336;2022-09-03T08:51:12;4.68;;;2.95;;
20122;SDS011;10222;50.848;4.336;2022-09-03T08:53:48;3.88;;;2.83;;
20122;SDS011;10222;50.848;4.336;2022-09-03T08:56:29;6.38;;;3.45;;
20122;SDS011;10222;50.848;4.336;2022-09-03T08:58:56;4.93;;;3.38;;
20122;SDS011;10222;50.848;4.336;2022-09-03T09:09:13;4.38;;;3.75;;
20122;SDS011;10222;50.848;4.336;2022-09-03T09:16:49;3.70;;;2.85;;
20122;SDS011;10222;50.848;4.336;2022-09-03T09:22:09;6.65;;;3.40;;
20122;SDS011;10222;50.848;4.336;2022-09-03T09:24:54;5.80;;;3.63;;
20122;SDS011;10222;50.848;4.336;2022-09-03T09:27:21;4.68;;;3.17;;
20122;SDS011;10222;50.848;4.336;2022-09-03T09:29:49;5.53;;;3.42;;
20122;SDS011;10222;50.848;4.336;2022-09-03T09:32:16;5.82;;;3.22;;
20122;SDS011;10222;50.848;4.336;2022-09-03T09:34:43;4.65;;;3.28;;
20122;SDS011;10222;50.848;4.336;2022-09-03T09:37:10;4.43;;;3.30;;
20122;SDS011;10222;50.848;4.336;2022-09-03T09:39:37;5.22;;;3.15;;
20122;SDS011;10222;50.848;4.336;2022-09-03T09:42:05;5.82;;;3.80;;
20122;SDS011;10222;50.848;4.336;2022-09-03T09:44:39;4.63;;;3.45;;
20122;SDS011;10222;50.848;4.336;2022-09-03T09:47:15;7.80;;;4.07;;
20122;SDS011;10222;50.848;4.336;2022-09-03T09:52:12;5.50;;;3.83;;
20122;SDS011;10222;50.848;4.336;2022-09-03T09:54:39;6.65;;;4.00;;
20122;SDS011;10222;50.848;4.336;2022-09-03T09:57:07;5.00;;;3.97;;
20122;SDS011;10222;50.848;4.336;2022-09-03T09:59:38;5.78;;;3.80;;
20122;SDS011;10222;50.848;4.336;2022-09-03T10:02:09;4.20;;;3.78;;
20122;SDS011;10222;50.848;4.336;2022-09-03T10:04:36;6.75;;;4.32;;
20122;SDS011;10222;50.848;4.336;2022-09-03T10:07:04;6.50;;;4.22;;
20122;SDS011;10222;50.848;4.336;2022-09-03T10:09:31;4.28;;;3.42;;
20122;SDS011;10222;50.848;4.336;2022-09-03T10:14:28;5.22;;;3.88;;
20122;SDS011;10222;50.848;4.336;2022-09-03T10:22:42;6.40;;;3.92;;
20122;SDS011;10222;50.848;4.336;2022-09-03T10:25:10;6.80;;;4.35;;
20122;SDS011;10222;50.848;4.336;2022-09-03T10:27:38;8.18;;;4.18;;
20122;SDS011;10222;50.848;4.336;2022-09-03T10:30:04;9.38;;;5.03;;
20122;SDS011;10222;50.848;4.336;2022-09-03T10:35:09;8.50;;;5.00;;
20122;SDS011;10222;50.848;4.336;2022-09-03T10:50:51;6.63;;;5.10;;
20122;SDS011;10222;50.848;4.336;2022-09-03T11:08:41;5.38;;;4.30;;
20122;SDS011;10222;50.848;4.336;2022-09-03T11:11:11;8.40;;;4.72;;
20122;SDS011;10222;50.848;4.336;2022-09-03T11:13:50;5.47;;;4.22;;
20122;SDS011;10222;50.848;4.336;2022-09-03T11:16:19;5.30;;;4.30;;
20122;SDS011;10222;50.848;4.336;2022-09-03T11:21:17;7.88;;;4.80;;
20122;SDS011;10222;50.848;4.336;2022-09-03T11:23:44;4.65;;;3.80;;
20122;SDS011;10222;50.848;4.336;2022-09-03T11:26:12;5.07;;;4.57;;
20122;SDS011;10222;50.848;4.336;2022-09-03T11:28:51;6.00;;;4.55;;
20122;SDS011;10222;50.848;4.336;2022-09-03T11:33:59;6.05;;;3.88;;
20122;SDS011;10222;50.848;4.336;2022-09-03T11:36:31;4.97;;;3.70;;
20122;SDS011;10222;50.848;4.336;2022-09-03T11:38:58;4.82;;;4.32;;
20122;SDS011;10222;50.848;4.336;2022-09-03T11:41:29;6.47;;;4.95;;
20122;SDS011;10222;50.848;4.336;2022-09-03T11:43:58;5.72;;;4.75;;
20122;SDS011;10222;50.848;4.336;2022-09-03T11:46:38;5.32;;;4.63;;
20122;SDS011;10222;50.848;4.336;2022-09-03T11:49:09;9.82;;;5.38;;
20122;SDS011;10222;50.848;4.336;2022-09-03T11:51:36;7.97;;;5.40;;
20122;SDS011;10222;50.848;4.336;2022-09-03T11:56:29;6.03;;;4.80;;
20122;SDS011;10222;50.848;4.336;2022-09-03T11:59:37;6.75;;;4.50;;
20122;SDS011;10222;50.848;4.336;2022-09-03T12:04:41;7.40;;;4.50;;
20122;SDS011;10222;50.848;4.336;2022-09-03T12:07:20;6.47;;;4.57;;
20122;SDS011;10222;50.848;4.336;2022-09-03T12:10:11;7.38;;;4.70;;
20122;SDS011;10222;50.848;4.336;2022-09-03T12:18:08;3.97;;;3.58;;
20122;SDS011;10222;50.848;4.336;2022-09-03T12:20:47;4.43;;;3.00;;
20122;SDS011;10222;50.848;4.336;2022-09-03T12:23:38;3.88;;;3.50;;
20122;SDS011;10222;50.848;4.336;2022-09-03T12:28:43;4.43;;;3.58;;
20122;SDS011;10222;50.848;4.336;2022-09-03T12:31:17;4.20;;;3.67;;
20122;SDS011;10222;50.848;4.336;2022-09-03T12:33:50;4.25;;;3.33;;
20122;SDS011;10222;50.848;4.336;2022-09-03T12:36:18;3.58;;;2.92;;
20122;SDS011;10222;50.848;4.336;2022-09-03T12:38:44;3.30;;;3.00;;
20122;SDS011;10222;50.848;4.336;2022-09-03T12:41:28;4.43;;;2.90;;
20122;SDS011;10222;50.848;4.336;2022-09-03T12:43:58;4.40;;;2.90;;
20122;SDS011;10222;50.848;4.336;2022-09-03T12:46:29;3.75;;;3.10;;
20122;SDS011;10222;50.848;4.336;2022-09-03T12:48:58;5.88;;;3.15;;
20122;SDS011;10222;50.848;4.336;2022-09-03T12:51:36;4.82;;;3.33;;
20122;SDS011;10222;50.848;4.336;2022-09-03T12:54:03;4.65;;;3.40;;
20122;SDS011;10222;50.848;4.336;2022-09-03T12:56:31;4.18;;;3.40;;
20122;SDS011;10222;50.848;4.336;2022-09-03T12:59:00;3.08;;;2.78;;
20122;SDS011;10222;50.848;4.336;2022-09-03T13:01:28;3.97;;;2.90;;
20122;SDS011;10222;50.848;4.336;2022-09-03T13:04:04;2.42;;;2.22;;
20122;SDS011;10222;50.848;4.336;2022-09-03T13:09:19;3.58;;;2.10;;
20122;SDS011;10222;50.848;4.336;2022-09-03T13:11:46;3.35;;;2.55;;
20122;SDS011;10222;50.848;4.336;2022-09-03T13:14:13;2.45;;;2.25;;
20122;SDS011;10222;50.848;4.336;2022-09-03T13:29:38;6.47;;;2.97;;
20122;SDS011;10222;50.848;4.336;2022-09-03T13:32:10;3.28;;;2.47;;
20122;SDS011;10222;50.848;4.336;2022-09-03T13:34:42;3.20;;;2.00;;
20122;SDS011;10222;50.848;4.336;2022-09-03T13:39:56;2.65;;;2.00;;
20122;SDS011;10222;50.848;4.336;2022-09-03T13:44:58;2.65;;;2.08;;
20122;SDS011;10222;50.848;4.336;2022-09-03T13:50:05;2.67;;;2.20;;
20122;SDS011;10222;50.848;4.336;2022-09-03T13:57:56;1.58;;;1.48;;
20122;SDS011;10222;50.848;4.336;2022-09-03T14:03:07;2.25;;;1.83;;
20122;SDS011;10222;50.848;4.336;2022-09-03T14:08:44;3.05;;;2.13;;
20122;SDS011;10222;50.848;4.336;2022-09-03T14:14:11;4.15;;;2.47;;
20122;SDS011;10222;50.848;4.336;2022-09-03T14:17:12;3.95;;;2.20;;
20122;SDS011;10222;50.848;4.336;2022-09-03T14:27:21;3.65;;;2.30;;
20122;SDS011;10222;50.848;4.336;2022-09-03T14:30:04;2.50;;;2.25;;
20122;SDS011;10222;50.848;4.336;2022-09-03T14:35:16;3.25;;;2.58;;
20122;SDS011;10222;50.848;4.336;2022-09-03T14:58:59;3.33;;;2.30;;
20122;SDS011;10222;50.848;4.336;2022-09-03T15:01:31;3.47;;;2.70;;
20122;SDS011;10222;50.848;4.336;2022-09-03T15:11:54;3.55;;;2.60;;
20122;SDS011;10222;50.848;4.336;2022-09-03T15:14:26;4.25;;;2.40;;
20122;SDS011;10222;50.848;4.336;2022-09-03T15:16:58;2.90;;;2.00;;
20122;SDS011;10222;50.848;4.336;2022-09-03T15:19:50;4.45;;;2.75;;
20122;SDS011;10222;50.848;4.336;2022-09-03T15:24:51;3.45;;;2.60;;
20122;SDS011;10222;50.848;4.336;2022-09-03T15:32:44;3.47;;;2.55;;
20122;SDS011;10222;50.848;4.336;2022-09-03T15:35:37;2.65;;;2.42;;
20122;SDS011;10222;50.848;4.336;2022-09-03T15:38:42;4.32;;;2.70;;
20122;SDS011;10222;50.848;4.336;2022-09-03T15:40:49;4.95;;;3.22;;
20122;SDS011;10222;50.848;4.336;2022-09-03T15:50:49;5.40;;;4.00;;
20122;SDS011;10222;50.848;4.336;2022-09-03T15:53:24;12.23;;;5.18;;
20122;SDS011;10222;50.848;4.336;2022-09-03T15:58:43;8.57;;;3.78;;
20122;SDS011;10222;50.848;4.336;2022-09-03T16:01:18;5.45;;;3.00;;
20122;SDS011;10222;50.848;4.336;2022-09-03T16:06:22;5.82;;;2.70;;
20122;SDS011;10222;50.848;4.336;2022-09-03T16:08:52;4.32;;;2.30;;
20122;SDS011;10222;50.848;4.336;2022-09-03T16:11:30;4.90;;;2.65;;
20122;SDS011;10222;50.848;4.336;2022-09-03T16:16:47;3.30;;;2.10;;
20122;SDS011;10222;50.848;4.336;2022-09-03T16:19:15;3.67;;;2.63;;
20122;SDS011;10222;50.848;4.336;2022-09-03T16:21:47;5.13;;;2.97;;
20122;SDS011;10222;50.848;4.336;2022-09-03T16:27:01;3.00;;;1.70;;
20122;SDS011;10222;50.848;4.336;2022-09-03T16:29:29;4.72;;;2.00;;
20122;SDS011;10222;50.848;4.336;2022-09-03T16:32:13;3.97;;;2.22;;
20122;SDS011;10222;50.848;4.336;2022-09-03T16:44:42;3.10;;;2.78;;
20122;SDS011;10222;50.848;4.336;2022-09-03T16:57:41;4.57;;;2.88;;
20122;SDS011;10222;50.848;4.336;2022-09-03T17:00:11;4.43;;;2.50;;
20122;SDS011;10222;50.848;4.336;2022-09-03T17:20:50;4.47;;;3.22;;
20122;SDS011;10222;50.848;4.336;2022-09-03T17:28:45;12.15;;;8.32;;
20122;SDS011;10222;50.848;4.336;2022-09-03T17:33:43;4.75;;;3.83;;
20122;SDS011;10222;50.848;4.336;2022-09-03T17:47:16;6.03;;;3.78;;
20122;SDS011;10222;50.848;4.336;2022-09-03T17:49:51;7.45;;;4.82;;
20122;SDS011;10222;50.848;4.336;2022-09-03T17:53:20;6.90;;;5.63;;
20122;SDS011;10222;50.848;4.336;2022-09-03T17:58:06;8.18;;;5.63;;
20122;SDS011;10222;50.848;4.336;2022-09-03T18:03:21;8.95;;;6.22;;
20122;SDS011;10222;50.848;4.336;2022-09-03T18:05:50;8.43;;;6.45;;
20122;SDS011;10222;50.848;4.336;2022-09-03T18:08:25;8.10;;;5.85;;
20122;SDS011;10222;50.848;4.336;2022-09-03T18:16:27;9.18;;;5.88;;
20122;SDS011;10222;50.848;4.336;2022-09-03T18:21:44;8.32;;;5.68;;
20122;SDS011;10222;50.848;4.336;2022-09-03T18:24:34;8.55;;;5.90;;
20122;SDS011;10222;50.848;4.336;2022-09-03T18:27:28;8.50;;;5.85;;
20122;SDS011;10222;50.848;4.336;2022-09-03T18:30:15;10.95;;;6.22;;
20122;SDS011;10222;50.848;4.336;2022-09-03T18:33:00;7.43;;;4.88;;
20122;SDS011;10222;50.848;4.336;2022-09-03T18:35:46;6.80;;;4.55;;
20122;SDS011;10222;50.848;4.336;2022-09-03T18:38:31;7.55;;;4.70;;
20122;SDS011;10222;50.848;4.336;2022-09-03T18:47:15;11.77;;;6.10;;
20122;SDS011;10222;50.848;4.336;2022-09-03T18:53:06;9.68;;;5.50;;
20122;SDS011;10222;50.848;4.336;2022-09-03T18:55:59;6.15;;;3.92;;
20122;SDS011;10222;50.848;4.336;2022-09-03T19:01:35;7.47;;;4.20;;
20122;SDS011;10222;50.848;4.336;2022-09-03T19:13:39;4.97;;;3.22;;
20122;SDS011;10222;50.848;4.336;2022-09-03T19:24:47;4.40;;;2.80;;
20122;SDS011;10222;50.848;4.336;2022-09-03T19:30:26;3.53;;;2.60;;
20122;SDS011;10222;50.848;4.336;2022-09-03T19:41:37;7.15;;;3.47;;
20122;SDS011;10222;50.848;4.336;2022-09-03T19:44:37;6.15;;;4.20;;
20122;SDS011;10222;50.848;4.336;2022-09-03T19:47:35;6.15;;;3.97;;
20122;SDS011;10222;50.848;4.336;2022-09-03T19:50:24;5.25;;;3.75;;
20122;SDS011;10222;50.848;4.336;2022-09-03T19:53:17;5.65;;;3.88;;
20122;SDS011;10222;50.848;4.336;2022-09-03T19:56:08;7.35;;;3.90;;
20122;SDS011;10222;50.848;4.336;2022-09-03T19:58:55;6.05;;;4.35;;
20122;SDS011;10222;50.848;4.336;2022-09-03T20:01:40;7.35;;;3.78;;
20122;SDS011;10222;50.848;4.336;2022-09-03T20:04:32;6.28;;;3.25;;
20122;SDS011;10222;50.848;4.336;2022-09-03T20:07:18;4.05;;;3.20;;
20122;SDS011;10222;50.848;4.336;2022-09-03T20:10:04;4.28;;;3.15;;
20122;SDS011;10222;50.848;4.336;2022-09-03T20:15:16;4.25;;;2.95;;
20122;SDS011;10222;50.848;4.336;2022-09-03T20:17:52;3.67;;;2.97;;
20122;SDS011;10222;50.848;4.336;2022-09-03T20:23:03;4.45;;;2.80;;
20122;SDS011;10222;50.848;4.336;2022-09-03T20:28:24;6.63;;;3.00;;
20122;SDS011;10222;50.848;4.336;2022-09-03T20:30:58;4.53;;;3.03;;
20122;SDS011;10222;50.848;4.336;2022-09-03T20:36:15;4.25;;;3.20;;
20122;SDS011;10222;50.848;4.336;2022-09-03T20:51:25;5.60;;;3.35;;
20122;SDS011;10222;50.848;4.336;2022-09-03T20:56:22;6.13;;;3.67;;
20122;SDS011;10222;50.848;4.336;2022-09-03T21:01:22;4.95;;;3.50;;
20122;SDS011;10222;50.848;4.336;2022-09-03T21:06:39;5.47;;;3.70;;
20122;SDS011;10222;50.848;4.336;2022-09-03T21:14:31;8.15;;;3.97;;
20122;SDS011;10222;50.848;4.336;2022-09-03T21:17:07;7.15;;;3.95;;
20122;SDS011;10222;50.848;4.336;2022-09-03T21:24:51;5.13;;;3.90;;
20122;SDS011;10222;50.848;4.336;2022-09-03T21:27:19;5.15;;;3.60;;
20122;SDS011;10222;50.848;4.336;2022-09-03T21:29:46;3.80;;;3.40;;
20122;SDS011;10222;50.848;4.336;2022-09-03T21:32:16;5.82;;;3.53;;
20122;SDS011;10222;50.848;4.336;2022-09-03T21:34:46;5.20;;;3.45;;
20122;SDS011;10222;50.848;4.336;2022-09-03T21:37:15;5.63;;;3.70;;
20122;SDS011;10222;50.848;4.336;2022-09-03T21:39:42;5.53;;;3.53;;
20122;SDS011;10222;50.848;4.336;2022-09-03T21:42:16;6.82;;;3.90;;